createdAt,value
2022-12-02T00:01:52.934Z,98689.44
2022-12-02T00:04:25.126Z,98683.97
2022-12-02T00:06:56.276Z,98679.34
2022-12-02T00:09:32.408Z,98680.97
2022-12-02T00:12:12.618Z,98677.97
2022-12-02T00:14:43.159Z,98672.91
2022-12-02T00:17:12.703Z,98674.69
2022-12-02T00:19:41.221Z,98672.25
2022-12-02T00:22:09.775Z,98666.41
2022-12-02T00:24:38.611Z,98664.19
2022-12-02T00:27:07.501Z,98669.00
2022-12-02T00:29:36.802Z,98662.16
2022-12-02T00:32:09.810Z,98661.22
2022-12-02T00:34:39.448Z,98667.91
2022-12-02T00:37:09.789Z,98655.78
2022-12-02T00:39:38.748Z,98659.69
2022-12-02T00:42:09.211Z,98657.66
2022-12-02T00:44:58.779Z,98650.59
2022-12-02T00:47:29.550Z,98655.88
2022-12-02T00:49:59.896Z,98653.84
2022-12-02T00:52:29.442Z,98648.28
2022-12-02T00:54:59.223Z,98652.06
2022-12-02T00:57:28.237Z,98654.25
2022-12-02T00:59:57.198Z,98651.66
2022-12-02T01:02:26.851Z,98646.63
2022-12-02T01:04:57.887Z,98653.56
2022-12-02T01:07:27.863Z,98640.75
2022-12-02T01:09:58.016Z,98643.22
2022-12-02T01:12:26.862Z,98636.13
2022-12-02T01:14:56.340Z,98643.88
2022-12-02T01:17:27.056Z,98638.84
2022-12-02T01:19:57.628Z,98642.00
2022-12-02T01:22:27.695Z,98641.16
2022-12-02T01:24:57.623Z,98641.03
2022-12-02T01:27:27.165Z,98634.91
2022-12-02T01:29:56.100Z,98638.97
2022-12-02T01:32:25.585Z,98633.81
2022-12-02T01:34:55.033Z,98635.06
2022-12-02T01:37:26.118Z,98643.59
2022-12-02T01:39:55.613Z,98643.59
2022-12-02T01:42:26.357Z,98646.91
2022-12-02T01:44:56.021Z,98649.06
2022-12-02T01:47:26.807Z,98648.94
2022-12-02T01:49:56.879Z,98643.47
2022-12-02T01:52:28.816Z,98639.53
2022-12-02T01:54:57.442Z,98644.69
2022-12-02T01:57:30.011Z,98631.91
2022-12-02T01:59:59.494Z,98638.03
2022-12-02T02:02:32.908Z,98637.91
2022-12-02T02:05:06.605Z,98640.34
2022-12-02T02:07:39.745Z,98640.63
2022-12-02T02:10:11.086Z,98635.84
2022-12-02T02:12:40.232Z,98632.19
2022-12-02T02:15:13.821Z,98630.38
2022-12-02T02:17:43.611Z,98636.94
2022-12-02T02:20:17.457Z,98628.22
2022-12-02T02:22:57.766Z,98634.06
2022-12-02T02:25:28.294Z,98630.00
2022-12-02T02:28:01.642Z,98629.16
2022-12-02T02:30:33.562Z,98623.16
2022-12-02T02:33:05.842Z,98625.91
2022-12-02T02:35:37.587Z,98622.22
2022-12-02T02:38:11.562Z,98623.03
2022-12-02T02:40:45.985Z,98619.91
2022-12-02T02:43:16.851Z,98624.25
2022-12-02T02:45:47.159Z,98621.41
2022-12-02T02:48:18.796Z,98623.72
2022-12-02T02:50:50.443Z,98618.81
2022-12-02T02:53:24.569Z,98622.09
2022-12-02T02:55:55.559Z,98619.50
2022-12-02T02:58:28.428Z,98613.63
2022-12-02T03:01:03.030Z,98622.09
2022-12-02T03:03:36.451Z,98618.13
2022-12-02T03:06:10.980Z,98609.66
2022-12-02T03:08:46.576Z,98604.09
2022-12-02T03:11:17.971Z,98603.00
2022-12-02T03:13:51.661Z,98597.25
2022-12-02T03:16:25.513Z,98610.91
2022-12-02T03:18:57.556Z,98603.81
2022-12-02T03:21:28.998Z,98609.66
2022-12-02T03:24:02.705Z,98610.38
2022-12-02T03:26:35.111Z,98608.44
2022-12-02T03:29:07.263Z,98600.69
2022-12-02T03:31:36.865Z,98600.56
2022-12-02T03:34:07.660Z,98595.94
2022-12-02T03:36:37.243Z,98592.09
2022-12-02T03:39:07.719Z,98599.06
2022-12-02T03:41:38.446Z,98593.06
2022-12-02T03:44:08.654Z,98585.13
2022-12-02T03:46:38.879Z,98585.13
2022-12-02T03:49:09.457Z,98588.28
2022-12-02T03:51:38.565Z,98579.84
2022-12-02T03:54:08.581Z,98582.28
2022-12-02T03:56:43.567Z,98571.91
2022-12-02T03:59:22.481Z,98573.84
2022-12-02T04:01:52.721Z,98577.91
2022-12-02T04:04:22.880Z,98580.94
2022-12-02T04:06:53.165Z,98577.38
2022-12-02T04:09:23.317Z,98566.19
2022-12-02T04:11:54.090Z,98560.22
2022-12-02T04:14:23.053Z,98560.88
2022-12-02T04:16:52.868Z,98553.41
2022-12-02T04:19:22.266Z,98553.13
2022-12-02T04:21:51.728Z,98558.28
2022-12-02T04:24:21.648Z,98549.88
2022-12-02T04:26:53.594Z,98544.66
2022-12-02T04:29:22.934Z,98547.94
2022-12-02T04:31:52.360Z,98542.63
2022-12-02T04:34:22.418Z,98538.13
2022-12-02T04:36:52.482Z,98531.59
2022-12-02T04:39:22.690Z,98533.22
2022-12-02T04:41:54.274Z,98528.84
2022-12-02T04:44:23.288Z,98518.75
2022-12-02T04:46:53.432Z,98524.22
2022-12-02T04:49:23.374Z,98525.16
2022-12-02T04:51:53.390Z,98532.28
2022-12-02T04:54:23.972Z,98533.75
2022-12-02T04:56:55.235Z,98530.91
2022-12-02T04:59:24.898Z,98524.38
2022-12-02T05:01:54.888Z,98522.47
2022-12-02T05:04:23.924Z,98523.41
2022-12-02T05:06:53.926Z,98519.31
2022-12-02T05:09:25.242Z,98513.31
2022-12-02T05:11:56.069Z,98511.97
2022-12-02T05:14:25.951Z,98505.16
2022-12-02T05:16:55.411Z,98496.69
2022-12-02T05:19:25.519Z,98503.81
2022-12-02T05:21:54.429Z,98495.88
2022-12-02T05:24:24.894Z,98494.53
2022-12-02T05:26:55.899Z,98483.91
2022-12-02T05:29:27.460Z,98487.72
2022-12-02T05:31:57.668Z,98495.88
2022-12-02T05:34:27.652Z,98491.41
2022-12-02T05:36:56.555Z,98490.44
2022-12-02T05:39:26.068Z,98484.31
2022-12-02T05:42:02.871Z,98485.97
2022-12-02T05:44:39.448Z,98488.53
2022-12-02T05:47:13.436Z,98494.38
2022-12-02T05:49:45.434Z,98501.34
2022-12-02T05:52:25.430Z,98492.09
2022-12-02T05:54:58.491Z,98489.88
2022-12-02T05:57:31.519Z,98483.09
2022-12-02T06:00:16.315Z,98483.75
2022-12-02T06:02:49.900Z,98477.38
2022-12-02T06:05:25.422Z,98484.59
2022-12-02T06:07:59.180Z,98482.53
2022-12-02T06:10:32.084Z,98479.81
2022-12-02T06:13:11.813Z,98477.38
2022-12-02T06:15:41.780Z,98479.53
2022-12-02T06:18:16.698Z,98485.53
2022-12-02T06:20:48.630Z,98484.59
2022-12-02T06:23:22.017Z,98482.13
2022-12-02T06:25:54.535Z,98480.34
2022-12-02T06:28:31.901Z,98487.19
2022-12-02T06:31:10.800Z,98489.50
2022-12-02T06:33:41.990Z,98491.81
2022-12-02T06:36:15.568Z,98487.72
2022-12-02T06:38:50.758Z,98489.09
2022-12-02T06:41:25.415Z,98493.28
2022-12-02T06:44:18.786Z,98493.84
2022-12-02T06:46:48.694Z,98497.66
2022-12-02T06:49:22.667Z,98493.44
2022-12-02T06:51:58.633Z,98494.13
2022-12-02T06:54:32.008Z,98497.66
2022-12-02T06:57:05.165Z,98489.38
2022-12-02T06:59:35.741Z,98491.13
2022-12-02T07:02:20.614Z,98492.09
2022-12-02T07:04:52.648Z,98493.44
2022-12-02T07:07:25.063Z,98492.47
2022-12-02T07:09:57.668Z,98486.09
2022-12-02T07:12:38.208Z,98491.69
2022-12-02T07:15:28.650Z,98480.50
2022-12-02T07:18:02.565Z,98479.00
2022-12-02T07:20:36.792Z,98481.44
2022-12-02T07:23:20.835Z,98484.59
2022-12-02T07:25:54.159Z,98475.75
2022-12-02T07:28:30.253Z,98476.56
2022-12-02T07:31:04.157Z,98470.00
2022-12-02T07:33:34.495Z,98473.81
2022-12-02T07:36:04.232Z,98472.88
2022-12-02T07:39:04.157Z,98471.50
2022-12-02T07:41:22.232Z,98472.88
2022-12-02T07:43:52.647Z,98470.00
2022-12-02T07:46:23.689Z,98472.75
2022-12-02T07:48:57.166Z,98470.94
2022-12-02T07:51:26.577Z,98466.34
2022-12-02T07:53:56.693Z,98463.47
2022-12-02T07:56:25.772Z,98467.56
2022-12-02T07:59:12.745Z,98463.19
2022-12-02T08:01:45.582Z,98466.47
2022-12-02T08:04:14.856Z,98459.53
2022-12-02T08:06:44.406Z,98468.91
2022-12-02T08:09:14.078Z,98463.88
2022-12-02T08:11:44.017Z,98461.28
2022-12-02T08:14:13.082Z,98469.44
2022-12-02T08:16:44.059Z,98474.50
2022-12-02T08:19:13.355Z,98461.28
2022-12-02T08:21:43.060Z,98465.09
2022-12-02T08:24:11.508Z,98461.84
2022-12-02T08:26:43.625Z,98468.38
2022-12-02T08:29:13.334Z,98464.72
2022-12-02T08:31:45.373Z,98462.94
2022-12-02T08:34:14.786Z,98461.97
2022-12-02T08:36:44.310Z,98461.00
2022-12-02T08:39:14.711Z,98464.28
2022-12-02T08:41:43.695Z,98455.84
2022-12-02T08:44:14.342Z,98458.16
2022-12-02T08:46:50.974Z,98457.88
2022-12-02T08:49:24.043Z,98456.66
2022-12-02T08:51:53.429Z,98454.72
2022-12-02T08:54:22.486Z,98457.47
2022-12-02T08:56:52.122Z,98453.13
2022-12-02T08:59:20.925Z,98453.13
2022-12-02T09:01:53.007Z,98459.78
2022-12-02T09:04:22.816Z,98454.59
2022-12-02T09:06:52.980Z,98463.06
2022-12-02T09:09:22.551Z,98460.06
2022-12-02T09:11:52.049Z,98461.28
2022-12-02T09:14:21.703Z,98462.94
2022-12-02T09:16:52.189Z,98467.56
2022-12-02T09:19:21.203Z,98460.06
2022-12-02T09:21:49.835Z,98461.56
2022-12-02T09:24:19.858Z,98461.16
2022-12-02T09:26:49.870Z,98460.88
2022-12-02T09:29:19.791Z,98463.47
2022-12-02T09:31:50.668Z,98460.59
2022-12-02T09:34:20.760Z,98457.72
2022-12-02T09:36:50.043Z,98455.81
2022-12-02T09:39:19.487Z,98455.25
2022-12-02T09:41:49.303Z,98455.97
2022-12-02T09:44:19.100Z,98456.09
2022-12-02T09:46:49.189Z,98449.13
2022-12-02T09:49:19.577Z,98460.97
2022-12-02T09:51:50.746Z,98454.47
2022-12-02T09:54:20.394Z,98451.47
2022-12-02T09:56:50.540Z,98452.28
2022-12-02T09:59:19.875Z,98444.13
2022-12-02T10:01:50.906Z,98447.50
2022-12-02T10:04:23.428Z,98446.72
2022-12-02T10:06:52.888Z,98449.97
2022-12-02T10:09:32.024Z,98441.25
2022-12-02T10:12:01.771Z,98438.78
2022-12-02T10:14:30.861Z,98434.56
2022-12-02T10:17:00.397Z,98434.00
2022-12-02T10:19:32.495Z,98427.59
2022-12-02T10:22:01.600Z,98437.00
2022-12-02T10:24:39.763Z,98425.84
2022-12-02T10:27:09.614Z,98434.44
2022-12-02T10:29:40.350Z,98426.66
2022-12-02T10:32:23.449Z,98426.78
2022-12-02T10:35:10.125Z,98421.22
2022-12-02T10:37:40.522Z,98422.59
2022-12-02T10:40:17.058Z,98416.31
2022-12-02T10:42:47.165Z,98416.97
2022-12-02T10:45:22.018Z,98413.59
2022-12-02T10:48:03.469Z,98415.19
2022-12-02T10:50:34.553Z,98406.78
2022-12-02T10:53:13.346Z,98410.31
2022-12-02T10:55:42.533Z,98410.44
2022-12-02T10:58:16.725Z,98407.59
2022-12-02T11:00:47.243Z,98398.22
2022-12-02T11:03:16.433Z,98404.88
2022-12-02T11:05:48.043Z,98398.59
2022-12-02T11:08:23.971Z,98392.59
2022-12-02T11:11:16.469Z,98396.81
2022-12-02T11:13:58.277Z,98392.59
2022-12-02T11:17:07.452Z,98388.78
2022-12-02T11:19:48.594Z,98386.34
2022-12-02T11:23:20.538Z,98392.34
2022-12-02T11:26:00.998Z,98387.81
2022-12-02T11:29:19.146Z,98379.22
2022-12-02T11:32:17.491Z,98378.03
2022-12-02T11:37:47.691Z,98372.16
2022-12-02T11:41:00.960Z,98364.09
2022-12-02T11:44:23.932Z,98360.97
2022-12-02T11:46:56.820Z,98354.69
2022-12-02T11:49:38.107Z,98351.81
2022-12-02T11:52:19.495Z,98348.28
2022-12-02T11:55:05.745Z,98351.69
2022-12-02T11:57:48.724Z,98343.94
2022-12-02T12:00:37.214Z,98339.41
2022-12-02T12:03:19.299Z,98349.75
2022-12-02T12:06:08.201Z,98346.34
2022-12-02T12:08:39.058Z,98333.56
2022-12-02T12:11:25.404Z,98338.22
2022-12-02T12:14:23.801Z,98339.44
2022-12-02T12:17:17.734Z,98325.97
2022-12-02T12:19:48.010Z,98325.41
2022-12-02T12:22:28.221Z,98330.44
2022-12-02T12:25:22.121Z,98326.34
2022-12-02T12:27:53.848Z,98321.75
2022-12-02T12:30:23.265Z,98316.44
2022-12-02T12:32:52.586Z,98317.09
2022-12-02T12:35:21.952Z,98316.28
2022-12-02T12:37:51.923Z,98303.91
2022-12-02T12:40:21.257Z,98298.84
2022-12-02T12:42:52.727Z,98293.03
2022-12-02T12:45:23.054Z,98294.78
2022-12-02T12:47:52.504Z,98294.50
2022-12-02T12:50:25.745Z,98291.78
2022-12-02T12:52:57.514Z,98294.50
2022-12-02T12:55:26.857Z,98284.97
2022-12-02T12:57:57.954Z,98294.22
2022-12-02T13:00:27.725Z,98285.78
2022-12-02T13:02:57.570Z,98295.84
2022-12-02T13:05:27.430Z,98291.38
2022-12-02T13:07:57.291Z,98281.66
2022-12-02T13:10:27.830Z,98290.69
2022-12-02T13:12:58.863Z,98288.50
2022-12-02T13:15:28.897Z,98293.97
2022-12-02T13:17:57.357Z,98288.84
2022-12-02T13:20:27.001Z,98294.97
2022-12-02T13:22:56.052Z,98290.50
2022-12-02T13:25:25.740Z,98291.84
2022-12-02T13:27:55.146Z,98288.72
2022-12-02T13:30:25.852Z,98285.88
2022-12-02T13:32:55.812Z,98285.34
2022-12-02T13:35:25.729Z,98291.31
2022-12-02T13:37:54.718Z,98282.31
2022-12-02T13:40:24.141Z,98296.59
2022-12-02T13:42:52.994Z,98293.34
2022-12-02T13:45:24.634Z,98289.38
2022-12-02T13:47:53.717Z,98288.53
2022-12-02T13:50:23.866Z,98290.84
2022-12-02T13:52:52.821Z,98290.56
2022-12-02T13:55:22.308Z,98294.84
2022-12-02T13:57:51.249Z,98299.72
2022-12-02T14:00:21.757Z,98295.38
2022-12-02T14:02:53.347Z,98294.13
2022-12-02T14:05:22.937Z,98294.78
2022-12-02T14:07:52.828Z,98293.44
2022-12-02T14:10:22.119Z,98303.00
2022-12-02T14:12:53.988Z,98291.53
2022-12-02T14:15:24.184Z,98297.81
2022-12-02T14:17:55.425Z,98294.13
2022-12-02T14:20:25.468Z,98298.53
2022-12-02T14:22:55.432Z,98297.53
2022-12-02T14:25:24.437Z,98295.94
2022-12-02T14:27:54.475Z,98296.59
2022-12-02T14:30:23.620Z,98299.47
2022-12-02T14:32:54.378Z,98297.16
2022-12-02T14:35:24.028Z,98300.69
2022-12-02T14:37:54.012Z,98303.81
2022-12-02T14:40:23.985Z,98298.38
2022-12-02T14:42:53.596Z,98298.66
2022-12-02T14:45:24.491Z,98301.53
2022-12-02T14:47:55.161Z,98302.19
2022-12-02T14:50:27.934Z,98301.94
2022-12-02T14:52:58.429Z,98301.00
2022-12-02T14:55:27.852Z,98307.09
2022-12-02T14:57:57.862Z,98304.44
2022-12-02T15:00:26.546Z,98301.84
2022-12-02T15:02:56.849Z,98296.22
2022-12-02T15:05:26.181Z,98302.91
2022-12-02T15:07:54.914Z,98300.56
2022-12-02T15:10:23.543Z,98297.88
2022-12-02T15:12:52.728Z,98299.50
2022-12-02T15:15:39.588Z,98307.28
2022-12-02T15:18:11.868Z,98310.41
2022-12-02T15:20:41.325Z,98309.88
2022-12-02T15:23:10.360Z,98309.72
2022-12-02T15:25:40.657Z,98309.88
2022-12-02T15:28:09.668Z,98315.06
2022-12-02T15:30:38.620Z,98308.53
2022-12-02T15:33:07.551Z,98313.44
2022-12-02T15:35:37.609Z,98304.44
2022-12-02T15:38:07.879Z,98314.50
2022-12-02T15:40:40.203Z,98313.31
2022-12-02T15:43:11.344Z,98314.66
2022-12-02T15:45:41.659Z,98315.47
2022-12-02T15:48:10.649Z,98317.00
2022-12-02T15:50:41.917Z,98309.91
2022-12-02T15:53:11.270Z,98317.25
2022-12-02T15:55:40.177Z,98321.63
2022-12-02T15:58:10.302Z,98323.78
2022-12-02T16:00:42.376Z,98323.13
2022-12-02T16:03:11.430Z,98326.66
2022-12-02T16:05:42.265Z,98320.38
2022-12-02T16:08:12.187Z,98324.88
2022-12-02T16:10:42.016Z,98332.38
2022-12-02T16:13:12.833Z,98330.34
2022-12-02T16:15:42.951Z,98332.75
2022-12-02T16:18:12.313Z,98335.34
2022-12-02T16:20:42.433Z,98337.94
2022-12-02T16:23:12.264Z,98331.16
2022-12-02T16:25:41.744Z,98344.09
2022-12-02T16:28:10.916Z,98339.47
2022-12-02T16:30:39.921Z,98337.53
2022-12-02T16:33:10.267Z,98340.94
2022-12-02T16:35:39.336Z,98341.06
2022-12-02T16:38:09.494Z,98341.06
2022-12-02T16:40:40.361Z,98348.56
2022-12-02T16:43:09.670Z,98343.25
2022-12-02T16:45:39.255Z,98341.59
2022-12-02T16:48:10.171Z,98341.59
2022-12-02T16:50:40.360Z,98347.75
2022-12-02T16:53:11.901Z,98340.94
2022-12-02T16:55:41.750Z,98346.66
2022-12-02T16:58:11.420Z,98344.88
2022-12-02T17:00:41.363Z,98348.28
2022-12-02T17:03:11.416Z,98352.66
2022-12-02T17:05:40.629Z,98354.28
2022-12-02T17:08:11.072Z,98339.72
2022-12-02T17:10:40.480Z,98344.88
2022-12-02T17:13:10.442Z,98344.88
2022-12-02T17:15:39.377Z,98346.66
2022-12-02T17:18:08.116Z,98341.75
2022-12-02T17:20:38.508Z,98344.75
2022-12-02T17:23:07.437Z,98337.69
2022-12-02T17:25:38.405Z,98348.28
2022-12-02T17:28:07.398Z,98348.28
2022-12-02T17:30:37.499Z,98342.72
2022-12-02T17:33:07.147Z,98353.06
2022-12-02T17:35:35.744Z,98349.53
2022-12-02T17:38:05.635Z,98354.56
2022-12-02T17:40:36.164Z,98346.94
2022-12-02T17:43:05.199Z,98347.78
2022-12-02T17:45:34.811Z,98360.44
2022-12-02T17:48:03.638Z,98351.03
2022-12-02T17:50:32.584Z,98357.69
2022-12-02T17:53:02.300Z,98352.38
2022-12-02T17:55:31.430Z,98352.38
2022-12-02T17:58:01.737Z,98355.66
2022-12-02T18:00:31.821Z,98353.88
2022-12-02T18:03:00.707Z,98357.56
2022-12-02T18:05:30.175Z,98358.63
2022-12-02T18:07:59.388Z,98352.66
2022-12-02T18:10:29.211Z,98358.09
2022-12-02T18:12:57.711Z,98357.44
2022-12-02T18:15:28.472Z,98359.19
2022-12-02T18:17:57.374Z,98351.31
2022-12-02T18:20:26.366Z,98357.97
2022-12-02T18:22:55.632Z,98354.03
2022-12-02T18:25:25.648Z,98348.31
2022-12-02T18:27:54.534Z,98347.63
2022-12-02T18:30:23.392Z,98346.13
2022-12-02T18:32:54.621Z,98349.13
2022-12-02T18:35:23.639Z,98344.75
2022-12-02T18:37:55.746Z,98350.75
2022-12-02T18:40:25.883Z,98344.75
2022-12-02T18:42:54.800Z,98349.41
2022-12-02T18:45:23.923Z,98339.84
2022-12-02T18:47:54.328Z,98340.69
2022-12-02T18:50:24.020Z,98345.16
2022-12-02T18:52:53.138Z,98334.13
2022-12-02T18:55:22.333Z,98333.47
2022-12-02T18:57:52.494Z,98334.69
2022-12-02T19:00:23.233Z,98340.13
2022-12-02T19:02:54.322Z,98335.78
2022-12-02T19:05:23.443Z,98334.13
2022-12-02T19:07:53.753Z,98334.41
2022-12-02T19:10:27.331Z,98337.00
2022-12-02T19:12:57.108Z,98333.19
2022-12-02T19:15:26.520Z,98333.59
2022-12-02T19:17:58.066Z,98330.88
2022-12-02T19:20:28.559Z,98336.03
2022-12-02T19:22:58.408Z,98332.75
2022-12-02T19:25:29.132Z,98336.56
2022-12-02T19:27:59.243Z,98336.56
2022-12-02T19:30:30.237Z,98334.94
2022-12-02T19:33:01.191Z,98333.31
2022-12-02T19:35:31.829Z,98344.84
2022-12-02T19:38:06.729Z,98339.56
2022-12-02T19:40:44.737Z,98332.47
2022-12-02T19:43:15.575Z,98334.78
2022-12-02T19:45:45.731Z,98342.53
2022-12-02T19:48:16.231Z,98344.31
2022-12-02T19:50:45.818Z,98344.59
2022-12-02T19:53:16.236Z,98341.88
2022-12-02T19:55:46.501Z,98344.19
2022-12-02T19:58:15.521Z,98340.50
2022-12-02T20:00:45.351Z,98334.78
2022-12-02T20:03:17.220Z,98343.63
2022-12-02T20:05:46.518Z,98332.09
2022-12-02T20:08:16.426Z,98338.75
2022-12-02T20:10:46.142Z,98336.03
2022-12-02T20:13:17.948Z,98346.63
2022-12-02T20:15:52.381Z,98337.09
2022-12-02T20:18:25.163Z,98343.38
2022-12-02T20:20:55.289Z,98345.00
2022-12-02T20:23:24.795Z,98345.53
2022-12-02T20:25:53.824Z,98340.34
2022-12-02T20:28:24.262Z,98338.47
2022-12-02T20:30:54.453Z,98342.25
2022-12-02T20:33:24.846Z,98341.31
2022-12-02T20:35:54.162Z,98342.81
2022-12-02T20:38:23.325Z,98348.09
2022-12-02T20:40:53.021Z,98343.75
2022-12-02T20:43:22.175Z,98343.91
2022-12-02T20:45:52.092Z,98339.81
2022-12-02T20:48:21.494Z,98344.19
2022-12-02T20:50:52.285Z,98344.72
2022-12-02T20:53:21.658Z,98344.19
2022-12-02T20:55:51.991Z,98349.47
2022-12-02T20:58:21.349Z,98347.00
2022-12-02T21:00:51.987Z,98352.31
2022-12-02T21:03:22.164Z,98352.88
2022-12-02T21:05:52.994Z,98350.97
2022-12-02T21:08:22.970Z,98350.97
2022-12-02T21:10:52.339Z,98351.94
2022-12-02T21:13:22.736Z,98348.38
2022-12-02T21:15:53.690Z,98347.69
2022-12-02T21:18:24.330Z,98346.59
2022-12-02T21:20:54.846Z,98349.19
2022-12-02T21:23:25.119Z,98354.47
2022-12-02T21:25:55.170Z,98355.16
2022-12-02T21:28:24.735Z,98352.31
2022-12-02T21:30:54.194Z,98351.47
2022-12-02T21:33:23.264Z,98359.06
2022-12-02T21:35:54.465Z,98347.13
2022-12-02T21:38:23.671Z,98350.53
2022-12-02T21:40:55.398Z,98347.13
2022-12-02T21:43:24.999Z,98346.44
2022-12-02T21:45:53.982Z,98347.91
2022-12-02T21:48:22.997Z,98346.03
2022-12-02T21:50:54.144Z,98349.28
2022-12-02T21:53:25.048Z,98352.81
2022-12-02T21:55:54.313Z,98358.13
2022-12-02T21:58:25.480Z,98351.03
2022-12-02T22:01:14.896Z,98358.22
2022-12-02T22:03:44.533Z,98354.81
2022-12-02T22:06:15.751Z,98358.22
2022-12-02T22:08:44.347Z,98363.66
2022-12-02T22:11:14.293Z,98357.41
2022-12-02T22:13:42.788Z,98363.53
2022-12-02T22:16:12.831Z,98369.53
2022-12-02T22:18:41.603Z,98367.06
2022-12-02T22:21:11.208Z,98369.22
2022-12-02T22:23:41.642Z,98374.78
2022-12-02T22:26:14.898Z,98369.06
2022-12-02T22:28:47.602Z,98370.69
2022-12-02T22:31:17.376Z,98371.50
2022-12-02T22:33:47.146Z,98372.59
2022-12-02T22:36:17.237Z,98376.09
2022-12-02T22:38:48.715Z,98372.84
2022-12-02T22:41:18.712Z,98372.03
2022-12-02T22:43:48.308Z,98371.19
2022-12-02T22:46:18.280Z,98371.63
2022-12-02T22:48:49.120Z,98377.97
2022-12-02T22:51:19.136Z,98372.28
2022-12-02T22:53:50.603Z,98370.66
2022-12-02T22:56:20.961Z,98373.88
2022-12-02T22:58:49.985Z,98367.91
2022-12-02T23:01:18.814Z,98361.47
2022-12-02T23:03:49.299Z,98361.63
2022-12-02T23:06:17.945Z,98360.53
2022-12-02T23:08:49.628Z,98357.16
2022-12-02T23:11:18.973Z,98357.03
2022-12-02T23:13:49.664Z,98354.56
2022-12-02T23:16:18.835Z,98353.63
2022-12-02T23:18:48.302Z,98345.63
2022-12-02T23:21:17.585Z,98350.78
2022-12-02T23:23:48.799Z,98354.75
2022-12-02T23:26:18.287Z,98367.38
2022-12-02T23:28:47.836Z,98346.75
2022-12-02T23:31:17.635Z,98355.16
2022-12-02T23:33:48.212Z,98352.16
2022-12-02T23:36:17.477Z,98354.56
2022-12-02T23:38:46.146Z,98354.19
2022-12-02T23:41:17.717Z,98354.84
2022-12-02T23:43:47.698Z,98356.19
2022-12-02T23:46:17.070Z,98357.16
2022-12-02T23:48:47.457Z,98352.81
2022-12-02T23:51:21.076Z,98354.56
2022-12-02T23:53:55.252Z,98354.94
2022-12-02T23:56:25.937Z,98354.13
2022-12-02T23:58:55.101Z,98350.75
